sensor_id;sensor_type;location;lat;lon;timestamp;temperature;humidity
56256;DHT22;57229;51.432;-2.598;2022-10-16T00:01:29;16.40;97.90
56256;DHT22;57229;51.432;-2.598;2022-10-16T00:27:11;16.40;97.80
56256;DHT22;57229;51.432;-2.598;2022-10-16T00:36:20;16.40;97.90
56256;DHT22;57229;51.432;-2.598;2022-10-16T00:38:47;16.40;97.90
56256;DHT22;57229;51.432;-2.598;2022-10-16T00:41:36;16.40;97.90
56256;DHT22;57229;51.432;-2.598;2022-10-16T00:47:32;16.40;98.00
56256;DHT22;57229;51.432;-2.598;2022-10-16T00:53:02;16.40;97.90
56256;DHT22;57229;51.432;-2.598;2022-10-16T01:15:02;16.30;98.00
56256;DHT22;57229;51.432;-2.598;2022-10-16T01:18:22;16.30;98.00
56256;DHT22;57229;51.432;-2.598;2022-10-16T01:20:54;16.30;98.00
56256;DHT22;57229;51.432;-2.598;2022-10-16T01:29:56;16.30;98.00
56256;DHT22;57229;51.432;-2.598;2022-10-16T01:33:01;16.30;98.00
56256;DHT22;57229;51.432;-2.598;2022-10-16T01:36:08;16.20;98.00
56256;DHT22;57229;51.432;-2.598;2022-10-16T01:39:05;16.30;97.90
56256;DHT22;57229;51.432;-2.598;2022-10-16T01:41:44;16.20;97.80
56256;DHT22;57229;51.432;-2.598;2022-10-16T01:47:42;16.30;97.70
56256;DHT22;57229;51.432;-2.598;2022-10-16T01:50:44;16.30;97.60
56256;DHT22;57229;51.432;-2.598;2022-10-16T01:53:31;16.30;97.60
56256;DHT22;57229;51.432;-2.598;2022-10-16T01:56:11;16.20;97.50
56256;DHT22;57229;51.432;-2.598;2022-10-16T01:58:47;16.20;97.50
56256;DHT22;57229;51.432;-2.598;2022-10-16T02:01:17;16.20;97.40
56256;DHT22;57229;51.432;-2.598;2022-10-16T02:03:48;16.20;97.40
56256;DHT22;57229;51.432;-2.598;2022-10-16T02:06:22;16.20;97.40
56256;DHT22;57229;51.432;-2.598;2022-10-16T02:08:49;16.20;97.30
56256;DHT22;57229;51.432;-2.598;2022-10-16T02:11:27;16.20;97.30
56256;DHT22;57229;51.432;-2.598;2022-10-16T02:14:09;16.20;97.20
56256;DHT22;57229;51.432;-2.598;2022-10-16T02:16:44;16.10;97.20
56256;DHT22;57229;51.432;-2.598;2022-10-16T02:25:56;16.10;97.20
56256;DHT22;57229;51.432;-2.598;2022-10-16T02:28:48;16.10;97.20
56256;DHT22;57229;51.432;-2.598;2022-10-16T02:31:22;16.10;97.20
56256;DHT22;57229;51.432;-2.598;2022-10-16T02:34:43;16.10;97.20
56256;DHT22;57229;51.432;-2.598;2022-10-16T02:37:10;16.10;97.10
56256;DHT22;57229;51.432;-2.598;2022-10-16T02:39:37;16.10;97.20
56256;DHT22;57229;51.432;-2.598;2022-10-16T02:42:03;16.20;97.20
56256;DHT22;57229;51.432;-2.598;2022-10-16T02:44:35;16.10;97.10
56256;DHT22;57229;51.432;-2.598;2022-10-16T02:50:20;16.00;97.10
56256;DHT22;57229;51.432;-2.598;2022-10-16T02:53:04;16.00;97.10
56256;DHT22;57229;51.432;-2.598;2022-10-16T02:55:32;16.00;97.00
56256;DHT22;57229;51.432;-2.598;2022-10-16T02:58:00;16.00;97.10
56256;DHT22;57229;51.432;-2.598;2022-10-16T03:00:51;16.00;97.00
56256;DHT22;57229;51.432;-2.598;2022-10-16T03:03:40;16.90;97.20
56256;DHT22;57229;51.432;-2.598;2022-10-16T03:06:25;15.90;97.00
56256;DHT22;57229;51.432;-2.598;2022-10-16T03:08:55;16.00;97.10
56256;DHT22;57229;51.432;-2.598;2022-10-16T03:11:24;16.00;97.10
56256;DHT22;57229;51.432;-2.598;2022-10-16T03:13:50;16.00;97.10
56256;DHT22;57229;51.432;-2.598;2022-10-16T03:16:21;16.00;97.10
56256;DHT22;57229;51.432;-2.598;2022-10-16T03:18:50;16.00;97.20
56256;DHT22;57229;51.432;-2.598;2022-10-16T03:24:10;15.90;97.10
56256;DHT22;57229;51.432;-2.598;2022-10-16T03:26:37;16.00;97.10
56256;DHT22;57229;51.432;-2.598;2022-10-16T03:29:06;16.50;97.20
56256;DHT22;57229;51.432;-2.598;2022-10-16T03:31:35;15.90;97.10
56256;DHT22;57229;51.432;-2.598;2022-10-16T03:34:10;15.90;97.10
56256;DHT22;57229;51.432;-2.598;2022-10-16T03:36:54;15.90;97.10
56256;DHT22;57229;51.432;-2.598;2022-10-16T03:39:34;15.90;97.10
56256;DHT22;57229;51.432;-2.598;2022-10-16T03:45:54;15.90;97.20
56256;DHT22;57229;51.432;-2.598;2022-10-16T03:48:23;15.90;97.20
56256;DHT22;57229;51.432;-2.598;2022-10-16T03:50:49;15.90;97.20
56256;DHT22;57229;51.432;-2.598;2022-10-16T03:53:16;15.90;97.10
56256;DHT22;57229;51.432;-2.598;2022-10-16T03:55:42;15.90;97.10
56256;DHT22;57229;51.432;-2.598;2022-10-16T03:58:08;15.90;97.10
56256;DHT22;57229;51.432;-2.598;2022-10-16T04:00:34;15.90;97.10
56256;DHT22;57229;51.432;-2.598;2022-10-16T04:03:00;15.90;97.10
56256;DHT22;57229;51.432;-2.598;2022-10-16T04:05:26;15.90;97.20
56256;DHT22;57229;51.432;-2.598;2022-10-16T04:08:04;15.80;97.10
56256;DHT22;57229;51.432;-2.598;2022-10-16T04:10:30;15.80;97.10
56256;DHT22;57229;51.432;-2.598;2022-10-16T04:12:56;16.00;97.20
56256;DHT22;57229;51.432;-2.598;2022-10-16T04:15:25;15.80;97.20
56256;DHT22;57229;51.432;-2.598;2022-10-16T04:17:51;15.80;97.10
56256;DHT22;57229;51.432;-2.598;2022-10-16T04:20:18;15.80;97.20
56256;DHT22;57229;51.432;-2.598;2022-10-16T04:22:44;15.80;97.20
56256;DHT22;57229;51.432;-2.598;2022-10-16T04:25:12;15.80;97.20
56256;DHT22;57229;51.432;-2.598;2022-10-16T04:27:39;15.80;97.30
56256;DHT22;57229;51.432;-2.598;2022-10-16T04:30:08;15.80;97.70
56256;DHT22;57229;51.432;-2.598;2022-10-16T04:35:17;15.70;97.20
56256;DHT22;57229;51.432;-2.598;2022-10-16T04:40:33;15.70;97.20
56256;DHT22;57229;51.432;-2.598;2022-10-16T04:43:02;15.70;97.30
56256;DHT22;57229;51.432;-2.598;2022-10-16T04:45:28;15.70;97.30
56256;DHT22;57229;51.432;-2.598;2022-10-16T04:47:59;15.70;97.30
56256;DHT22;57229;51.432;-2.598;2022-10-16T04:50:25;15.70;97.40
56256;DHT22;57229;51.432;-2.598;2022-10-16T04:52:51;15.70;97.40
56256;DHT22;57229;51.432;-2.598;2022-10-16T04:55:17;15.70;97.40
56256;DHT22;57229;51.432;-2.598;2022-10-16T04:57:42;15.70;97.40
56256;DHT22;57229;51.432;-2.598;2022-10-16T05:00:09;15.70;97.40
56256;DHT22;57229;51.432;-2.598;2022-10-16T05:02:35;15.70;97.40
56256;DHT22;57229;51.432;-2.598;2022-10-16T05:05:00;15.70;97.40
56256;DHT22;57229;51.432;-2.598;2022-10-16T05:07:26;15.70;97.50
56256;DHT22;57229;51.432;-2.598;2022-10-16T05:09:52;15.70;97.50
56256;DHT22;57229;51.432;-2.598;2022-10-16T05:12:21;15.70;97.50
56256;DHT22;57229;51.432;-2.598;2022-10-16T05:14:46;15.70;97.50
56256;DHT22;57229;51.432;-2.598;2022-10-16T05:17:12;15.60;97.50
56256;DHT22;57229;51.432;-2.598;2022-10-16T05:19:37;15.60;97.50
56256;DHT22;57229;51.432;-2.598;2022-10-16T05:22:03;15.60;97.50
56256;DHT22;57229;51.432;-2.598;2022-10-16T05:24:29;15.60;97.50
56256;DHT22;57229;51.432;-2.598;2022-10-16T05:26:55;15.60;97.50
56256;DHT22;57229;51.432;-2.598;2022-10-16T05:29:21;15.60;97.50
56256;DHT22;57229;51.432;-2.598;2022-10-16T05:31:53;15.60;97.60
56256;DHT22;57229;51.432;-2.598;2022-10-16T05:34:19;15.60;97.60
56256;DHT22;57229;51.432;-2.598;2022-10-16T05:36:45;15.60;97.60
56256;DHT22;57229;51.432;-2.598;2022-10-16T05:39:11;15.60;97.60
56256;DHT22;57229;51.432;-2.598;2022-10-16T05:41:37;15.60;97.60
56256;DHT22;57229;51.432;-2.598;2022-10-16T05:44:06;15.60;97.60
56256;DHT22;57229;51.432;-2.598;2022-10-16T05:46:35;15.60;97.60
56256;DHT22;57229;51.432;-2.598;2022-10-16T05:49:21;15.60;97.60
56256;DHT22;57229;51.432;-2.598;2022-10-16T05:51:49;15.60;97.60
56256;DHT22;57229;51.432;-2.598;2022-10-16T05:54:18;15.60;97.70
56256;DHT22;57229;51.432;-2.598;2022-10-16T05:56:44;15.60;97.70
56256;DHT22;57229;51.432;-2.598;2022-10-16T05:59:10;15.60;97.70
56256;DHT22;57229;51.432;-2.598;2022-10-16T06:01:47;15.60;97.70
56256;DHT22;57229;51.432;-2.598;2022-10-16T06:04:13;15.60;97.70
56256;DHT22;57229;51.432;-2.598;2022-10-16T06:06:45;15.60;97.70
56256;DHT22;57229;51.432;-2.598;2022-10-16T06:09:11;15.60;97.70
56256;DHT22;57229;51.432;-2.598;2022-10-16T06:11:40;15.60;97.80
56256;DHT22;57229;51.432;-2.598;2022-10-16T06:14:05;15.50;97.80
56256;DHT22;57229;51.432;-2.598;2022-10-16T06:16:38;15.60;98.10
56256;DHT22;57229;51.432;-2.598;2022-10-16T06:19:09;15.60;97.80
56256;DHT22;57229;51.432;-2.598;2022-10-16T06:22:01;15.60;97.80
56256;DHT22;57229;51.432;-2.598;2022-10-16T06:24:32;15.50;97.80
56256;DHT22;57229;51.432;-2.598;2022-10-16T06:27:04;15.60;97.80
56256;DHT22;57229;51.432;-2.598;2022-10-16T06:29:55;15.60;97.80
56256;DHT22;57229;51.432;-2.598;2022-10-16T06:35:44;15.60;98.00
56256;DHT22;57229;51.432;-2.598;2022-10-16T06:38:10;15.60;98.10
56256;DHT22;57229;51.432;-2.598;2022-10-16T06:40:36;15.60;98.00
56256;DHT22;57229;51.432;-2.598;2022-10-16T06:43:02;15.60;98.00
56256;DHT22;57229;51.432;-2.598;2022-10-16T06:45:31;15.50;97.90
56256;DHT22;57229;51.432;-2.598;2022-10-16T06:48:00;15.50;97.90
56256;DHT22;57229;51.432;-2.598;2022-10-16T06:50:26;15.50;98.10
56256;DHT22;57229;51.432;-2.598;2022-10-16T06:52:52;15.50;98.30
56256;DHT22;57229;51.432;-2.598;2022-10-16T06:55:17;15.50;98.40
56256;DHT22;57229;51.432;-2.598;2022-10-16T06:57:43;15.50;98.50
56256;DHT22;57229;51.432;-2.598;2022-10-16T07:00:15;15.60;98.50
56256;DHT22;57229;51.432;-2.598;2022-10-16T07:19:52;15.60;98.40
56256;DHT22;57229;51.432;-2.598;2022-10-16T07:32:27;15.60;98.20
56256;DHT22;57229;51.432;-2.598;2022-10-16T07:50:48;15.60;98.30
56256;DHT22;57229;51.432;-2.598;2022-10-16T07:56:33;15.60;98.10
56256;DHT22;57229;51.432;-2.598;2022-10-16T08:01:50;15.60;98.10
56256;DHT22;57229;51.432;-2.598;2022-10-16T08:04:21;15.60;98.10
56256;DHT22;57229;51.432;-2.598;2022-10-16T08:06:47;15.60;98.30
56256;DHT22;57229;51.432;-2.598;2022-10-16T08:09:16;15.60;98.30
56256;DHT22;57229;51.432;-2.598;2022-10-16T08:11:44;15.60;98.30
56256;DHT22;57229;51.432;-2.598;2022-10-16T08:14:12;15.60;98.30
56256;DHT22;57229;51.432;-2.598;2022-10-16T08:16:38;15.60;98.30
56256;DHT22;57229;51.432;-2.598;2022-10-16T08:19:04;15.60;98.30
56256;DHT22;57229;51.432;-2.598;2022-10-16T08:21:35;15.60;98.30
56256;DHT22;57229;51.432;-2.598;2022-10-16T08:24:01;15.60;98.30
56256;DHT22;57229;51.432;-2.598;2022-10-16T08:26:27;15.60;98.30
56256;DHT22;57229;51.432;-2.598;2022-10-16T08:28:54;15.60;98.30
56256;DHT22;57229;51.432;-2.598;2022-10-16T08:31:20;15.70;98.40
56256;DHT22;57229;51.432;-2.598;2022-10-16T08:33:47;15.70;98.40
56256;DHT22;57229;51.432;-2.598;2022-10-16T08:36:13;15.70;98.40
56256;DHT22;57229;51.432;-2.598;2022-10-16T08:38:39;15.70;98.30
56256;DHT22;57229;51.432;-2.598;2022-10-16T08:49:14;15.80;98.30
56256;DHT22;57229;51.432;-2.598;2022-10-16T08:51:40;15.80;98.20
56256;DHT22;57229;51.432;-2.598;2022-10-16T08:54:28;15.80;98.20
56256;DHT22;57229;51.432;-2.598;2022-10-16T08:56:56;15.80;98.10
56256;DHT22;57229;51.432;-2.598;2022-10-16T08:59:23;15.80;98.10
56256;DHT22;57229;51.432;-2.598;2022-10-16T09:01:50;15.80;98.00
56256;DHT22;57229;51.432;-2.598;2022-10-16T09:16:22;17.10;96.90
56256;DHT22;57229;51.432;-2.598;2022-10-16T09:21:42;18.30;94.10
56256;DHT22;57229;51.432;-2.598;2022-10-16T09:24:21;18.70;93.10
56256;DHT22;57229;51.432;-2.598;2022-10-16T09:26:48;19.10;92.20
56256;DHT22;57229;51.432;-2.598;2022-10-16T09:29:15;19.40;91.80
56256;DHT22;57229;51.432;-2.598;2022-10-16T09:31:42;19.60;91.30
56256;DHT22;57229;51.432;-2.598;2022-10-16T09:34:26;19.80;90.90
56256;DHT22;57229;51.432;-2.598;2022-10-16T09:36:54;20.10;90.40
56256;DHT22;57229;51.432;-2.598;2022-10-16T09:39:21;20.30;90.00
56256;DHT22;57229;51.432;-2.598;2022-10-16T09:41:47;20.60;89.20
56256;DHT22;57229;51.432;-2.598;2022-10-16T09:44:29;20.80;88.40
56256;DHT22;57229;51.432;-2.598;2022-10-16T09:47:04;21.00;87.80
56256;DHT22;57229;51.432;-2.598;2022-10-16T09:49:33;21.10;87.20
56256;DHT22;57229;51.432;-2.598;2022-10-16T09:52:15;21.20;86.90
56256;DHT22;57229;51.432;-2.598;2022-10-16T09:54:54;21.40;86.40
56256;DHT22;57229;51.432;-2.598;2022-10-16T09:57:22;21.50;86.10
56256;DHT22;57229;51.432;-2.598;2022-10-16T09:59:55;21.50;85.70
56256;DHT22;57229;51.432;-2.598;2022-10-16T10:02:34;21.60;85.40
56256;DHT22;57229;51.432;-2.598;2022-10-16T10:05:01;21.60;85.20
56256;DHT22;57229;51.432;-2.598;2022-10-16T10:07:30;21.70;84.90
56256;DHT22;57229;51.432;-2.598;2022-10-16T10:10:01;21.80;84.60
56256;DHT22;57229;51.432;-2.598;2022-10-16T10:12:28;22.00;84.20
56256;DHT22;57229;51.432;-2.598;2022-10-16T10:14:57;22.10;83.90
56256;DHT22;57229;51.432;-2.598;2022-10-16T10:17:28;22.20;83.50
56256;DHT22;57229;51.432;-2.598;2022-10-16T10:19:59;22.30;83.20
56256;DHT22;57229;51.432;-2.598;2022-10-16T10:28:03;22.80;81.90
56256;DHT22;57229;51.432;-2.598;2022-10-16T10:30:35;23.00;81.60
56256;DHT22;57229;51.432;-2.598;2022-10-16T10:38:54;23.40;80.30
56256;DHT22;57229;51.432;-2.598;2022-10-16T10:44:05;23.80;79.70
56256;DHT22;57229;51.432;-2.598;2022-10-16T10:46:42;23.90;79.40
56256;DHT22;57229;51.432;-2.598;2022-10-16T10:49:32;24.00;79.00
56256;DHT22;57229;51.432;-2.598;2022-10-16T10:55:23;24.30;78.40
56256;DHT22;57229;51.432;-2.598;2022-10-16T11:03:27;24.60;77.70
56256;DHT22;57229;51.432;-2.598;2022-10-16T11:06:12;24.60;77.00
56256;DHT22;57229;51.432;-2.598;2022-10-16T11:14:20;24.80;76.80
56256;DHT22;57229;51.432;-2.598;2022-10-16T11:19:39;24.80;76.90
56256;DHT22;57229;51.432;-2.598;2022-10-16T11:25:06;24.80;77.20
56256;DHT22;57229;51.432;-2.598;2022-10-16T11:30:26;24.60;77.60
56256;DHT22;57229;51.432;-2.598;2022-10-16T11:33:25;24.50;78.00
56256;DHT22;57229;51.432;-2.598;2022-10-16T11:49:29;23.50;81.00
56256;DHT22;57229;51.432;-2.598;2022-10-16T11:57:33;22.50;83.40
56256;DHT22;57229;51.432;-2.598;2022-10-16T12:00:06;22.30;84.00
56256;DHT22;57229;51.432;-2.598;2022-10-16T12:03:36;22.20;84.50
56256;DHT22;57229;51.432;-2.598;2022-10-16T12:05:40;22.10;85.00
56256;DHT22;57229;51.432;-2.598;2022-10-16T12:08:16;22.00;85.00
56256;DHT22;57229;51.432;-2.598;2022-10-16T12:10:47;21.90;85.50
56256;DHT22;57229;51.432;-2.598;2022-10-16T12:13:35;21.80;85.70
56256;DHT22;57229;51.432;-2.598;2022-10-16T12:16:27;21.70;85.90
56256;DHT22;57229;51.432;-2.598;2022-10-16T12:21:35;21.40;86.70
56256;DHT22;57229;51.432;-2.598;2022-10-16T12:24:03;21.40;86.80
56256;DHT22;57229;51.432;-2.598;2022-10-16T12:26:32;21.40;87.00
56256;DHT22;57229;51.432;-2.598;2022-10-16T12:29:25;21.40;87.60
56256;DHT22;57229;51.432;-2.598;2022-10-16T12:31:53;21.50;86.80
56256;DHT22;57229;51.432;-2.598;2022-10-16T12:34:25;21.50;86.90
56256;DHT22;57229;51.432;-2.598;2022-10-16T12:36:52;21.50;86.80
56256;DHT22;57229;51.432;-2.598;2022-10-16T12:39:22;21.40;86.90
56256;DHT22;57229;51.432;-2.598;2022-10-16T12:42:01;21.40;87.20
56256;DHT22;57229;51.432;-2.598;2022-10-16T12:44:32;21.20;87.40
56256;DHT22;57229;51.432;-2.598;2022-10-16T12:46:58;21.00;87.90
56256;DHT22;57229;51.432;-2.598;2022-10-16T12:49:35;20.80;88.50
56256;DHT22;57229;51.432;-2.598;2022-10-16T12:52:02;20.70;89.00
56256;DHT22;57229;51.432;-2.598;2022-10-16T12:54:36;20.70;89.50
56256;DHT22;57229;51.432;-2.598;2022-10-16T13:05:20;20.80;89.40
56256;DHT22;57229;51.432;-2.598;2022-10-16T13:10:41;20.80;89.20
56256;DHT22;57229;51.432;-2.598;2022-10-16T13:24:50;20.90;89.20
56256;DHT22;57229;51.432;-2.598;2022-10-16T13:27:29;20.90;89.20
56256;DHT22;57229;51.432;-2.598;2022-10-16T13:30:15;20.90;89.40
56256;DHT22;57229;51.432;-2.598;2022-10-16T13:32:49;20.90;89.50
56256;DHT22;57229;51.432;-2.598;2022-10-16T13:35:21;20.90;89.40
56256;DHT22;57229;51.432;-2.598;2022-10-16T13:37:47;20.90;89.60
56256;DHT22;57229;51.432;-2.598;2022-10-16T13:40:23;20.80;89.80
56256;DHT22;57229;51.432;-2.598;2022-10-16T13:42:51;20.70;90.30
56256;DHT22;57229;51.432;-2.598;2022-10-16T13:45:22;20.70;90.10
56256;DHT22;57229;51.432;-2.598;2022-10-16T13:47:48;20.70;90.40
56256;DHT22;57229;51.432;-2.598;2022-10-16T13:50:18;20.70;90.40
56256;DHT22;57229;51.432;-2.598;2022-10-16T13:52:44;20.60;90.40
56256;DHT22;57229;51.432;-2.598;2022-10-16T13:55:16;20.60;90.70
56256;DHT22;57229;51.432;-2.598;2022-10-16T13:57:42;20.60;90.90
56256;DHT22;57229;51.432;-2.598;2022-10-16T14:00:37;20.50;90.90
56256;DHT22;57229;51.432;-2.598;2022-10-16T14:03:15;20.50;90.50
56256;DHT22;57229;51.432;-2.598;2022-10-16T14:05:49;20.60;90.50
56256;DHT22;57229;51.432;-2.598;2022-10-16T14:08:16;20.50;90.60
56256;DHT22;57229;51.432;-2.598;2022-10-16T14:10:42;20.40;90.70
56256;DHT22;57229;51.432;-2.598;2022-10-16T14:13:20;20.40;90.90
56256;DHT22;57229;51.432;-2.598;2022-10-16T14:15:50;20.30;91.40
56256;DHT22;57229;51.432;-2.598;2022-10-16T14:18:23;20.30;91.40
56256;DHT22;57229;51.432;-2.598;2022-10-16T14:20:50;20.20;91.30
56256;DHT22;57229;51.432;-2.598;2022-10-16T14:23:28;20.20;91.60
56256;DHT22;57229;51.432;-2.598;2022-10-16T14:25:54;20.10;91.20
56256;DHT22;57229;51.432;-2.598;2022-10-16T14:28:30;20.00;91.60
56256;DHT22;57229;51.432;-2.598;2022-10-16T14:30:58;19.90;91.90
56256;DHT22;57229;51.432;-2.598;2022-10-16T14:33:32;19.90;92.10
56256;DHT22;57229;51.432;-2.598;2022-10-16T14:38:34;19.70;92.40
56256;DHT22;57229;51.432;-2.598;2022-10-16T14:41:00;19.60;92.50
56256;DHT22;57229;51.432;-2.598;2022-10-16T14:46:01;19.50;92.80
56256;DHT22;57229;51.432;-2.598;2022-10-16T14:48:27;19.50;92.80
56256;DHT22;57229;51.432;-2.598;2022-10-16T14:50:56;19.40;92.90
56256;DHT22;57229;51.432;-2.598;2022-10-16T14:53:22;19.40;93.00
56256;DHT22;57229;51.432;-2.598;2022-10-16T14:55:48;19.40;93.10
56256;DHT22;57229;51.432;-2.598;2022-10-16T14:58:23;19.30;93.10
56256;DHT22;57229;51.432;-2.598;2022-10-16T15:00:55;19.30;93.20
56256;DHT22;57229;51.432;-2.598;2022-10-16T15:03:21;19.30;93.30
56256;DHT22;57229;51.432;-2.598;2022-10-16T15:05:47;19.30;93.30
56256;DHT22;57229;51.432;-2.598;2022-10-16T15:08:12;19.30;93.40
56256;DHT22;57229;51.432;-2.598;2022-10-16T15:10:42;19.30;93.40
56256;DHT22;57229;51.432;-2.598;2022-10-16T15:13:12;19.20;93.30
56256;DHT22;57229;51.432;-2.598;2022-10-16T15:15:43;19.20;93.40
56256;DHT22;57229;51.432;-2.598;2022-10-16T15:18:09;19.20;93.50
56256;DHT22;57229;51.432;-2.598;2022-10-16T15:20:37;19.20;93.50
56256;DHT22;57229;51.432;-2.598;2022-10-16T15:23:18;19.10;93.60
56256;DHT22;57229;51.432;-2.598;2022-10-16T15:25:49;19.10;93.60
56256;DHT22;57229;51.432;-2.598;2022-10-16T15:28:16;19.10;93.70
56256;DHT22;57229;51.432;-2.598;2022-10-16T15:30:43;19.10;93.70
56256;DHT22;57229;51.432;-2.598;2022-10-16T15:33:17;19.10;93.80
56256;DHT22;57229;51.432;-2.598;2022-10-16T15:35:46;19.00;93.90
56256;DHT22;57229;51.432;-2.598;2022-10-16T15:38:12;19.00;94.10
56256;DHT22;57229;51.432;-2.598;2022-10-16T15:40:39;19.00;94.10
56256;DHT22;57229;51.432;-2.598;2022-10-16T15:43:05;19.00;94.20
56256;DHT22;57229;51.432;-2.598;2022-10-16T15:45:31;19.00;94.30
56256;DHT22;57229;51.432;-2.598;2022-10-16T15:47:57;19.00;94.30
56256;DHT22;57229;51.432;-2.598;2022-10-16T15:50:22;19.00;94.40
56256;DHT22;57229;51.432;-2.598;2022-10-16T15:52:49;18.90;94.50
56256;DHT22;57229;51.432;-2.598;2022-10-16T15:55:15;18.90;94.50
56256;DHT22;57229;51.432;-2.598;2022-10-16T15:57:41;18.90;94.50
56256;DHT22;57229;51.432;-2.598;2022-10-16T16:00:14;18.90;94.50
56256;DHT22;57229;51.432;-2.598;2022-10-16T16:02:41;18.90;94.60
56256;DHT22;57229;51.432;-2.598;2022-10-16T16:05:07;18.90;94.60
56256;DHT22;57229;51.432;-2.598;2022-10-16T16:07:34;18.90;94.70
56256;DHT22;57229;51.432;-2.598;2022-10-16T16:10:00;18.80;94.70
56256;DHT22;57229;51.432;-2.598;2022-10-16T16:12:26;18.80;94.70
56256;DHT22;57229;51.432;-2.598;2022-10-16T16:14:52;18.80;94.80
56256;DHT22;57229;51.432;-2.598;2022-10-16T16:17:18;18.70;94.80
56256;DHT22;57229;51.432;-2.598;2022-10-16T16:19:45;18.70;94.80
56256;DHT22;57229;51.432;-2.598;2022-10-16T16:22:10;18.70;94.80
56256;DHT22;57229;51.432;-2.598;2022-10-16T16:24:36;18.70;94.90
56256;DHT22;57229;51.432;-2.598;2022-10-16T16:27:02;18.70;94.90
56256;DHT22;57229;51.432;-2.598;2022-10-16T16:29:27;18.60;94.90
56256;DHT22;57229;51.432;-2.598;2022-10-16T16:31:53;18.60;95.00
56256;DHT22;57229;51.432;-2.598;2022-10-16T16:34:26;18.60;95.10
56256;DHT22;57229;51.432;-2.598;2022-10-16T16:36:52;18.60;95.10
56256;DHT22;57229;51.432;-2.598;2022-10-16T16:39:18;18.60;95.10
56256;DHT22;57229;51.432;-2.598;2022-10-16T16:41:44;18.60;95.20
56256;DHT22;57229;51.432;-2.598;2022-10-16T16:44:12;18.60;95.20
56256;DHT22;57229;51.432;-2.598;2022-10-16T16:46:38;18.60;95.30
56256;DHT22;57229;51.432;-2.598;2022-10-16T16:49:05;18.60;95.40
56256;DHT22;57229;51.432;-2.598;2022-10-16T16:51:32;18.60;95.40
56256;DHT22;57229;51.432;-2.598;2022-10-16T16:53:59;18.60;95.30
56256;DHT22;57229;51.432;-2.598;2022-10-16T16:56:25;18.50;95.30
56256;DHT22;57229;51.432;-2.598;2022-10-16T16:58:54;18.50;95.30
56256;DHT22;57229;51.432;-2.598;2022-10-16T17:01:21;18.50;95.30
56256;DHT22;57229;51.432;-2.598;2022-10-16T17:03:50;18.50;95.30
56256;DHT22;57229;51.432;-2.598;2022-10-16T17:06:17;18.50;95.30
56256;DHT22;57229;51.432;-2.598;2022-10-16T17:08:43;18.40;95.40
56256;DHT22;57229;51.432;-2.598;2022-10-16T17:11:16;18.50;95.50
56256;DHT22;57229;51.432;-2.598;2022-10-16T17:13:42;18.40;95.50
56256;DHT22;57229;51.432;-2.598;2022-10-16T17:16:09;18.50;95.70
56256;DHT22;57229;51.432;-2.598;2022-10-16T17:18:35;18.40;95.60
56256;DHT22;57229;51.432;-2.598;2022-10-16T17:21:03;18.40;95.60
56256;DHT22;57229;51.432;-2.598;2022-10-16T17:23:29;18.40;95.70
56256;DHT22;57229;51.432;-2.598;2022-10-16T17:25:55;18.40;95.60
56256;DHT22;57229;51.432;-2.598;2022-10-16T17:28:20;18.40;95.60
56256;DHT22;57229;51.432;-2.598;2022-10-16T17:30:46;18.30;95.60
56256;DHT22;57229;51.432;-2.598;2022-10-16T17:33:13;18.30;95.60
56256;DHT22;57229;51.432;-2.598;2022-10-16T17:35:41;18.30;95.70
56256;DHT22;57229;51.432;-2.598;2022-10-16T17:44:56;18.30;96.00
56256;DHT22;57229;51.432;-2.598;2022-10-16T17:47:23;18.30;96.50
56256;DHT22;57229;51.432;-2.598;2022-10-16T17:50:18;18.30;97.00
56256;DHT22;57229;51.432;-2.598;2022-10-16T17:56:32;18.40;98.00
56256;DHT22;57229;51.432;-2.598;2022-10-16T18:02:27;18.40;98.30
56256;DHT22;57229;51.432;-2.598;2022-10-16T18:04:53;17.50;98.20
56256;DHT22;57229;51.432;-2.598;2022-10-16T18:10:45;18.40;98.50
56256;DHT22;57229;51.432;-2.598;2022-10-16T18:16:37;18.40;98.40
56256;DHT22;57229;51.432;-2.598;2022-10-16T18:19:04;18.40;98.40
56256;DHT22;57229;51.432;-2.598;2022-10-16T18:21:51;18.40;98.40
56256;DHT22;57229;51.432;-2.598;2022-10-16T18:31:13;18.30;98.10
56256;DHT22;57229;51.432;-2.598;2022-10-16T18:33:43;18.30;98.00
56256;DHT22;57229;51.432;-2.598;2022-10-16T18:36:13;18.30;98.00
56256;DHT22;57229;51.432;-2.598;2022-10-16T18:39:16;18.30;97.90
56256;DHT22;57229;51.432;-2.598;2022-10-16T18:42:07;18.30;97.90
56256;DHT22;57229;51.432;-2.598;2022-10-16T18:55:24;18.20;97.80
56256;DHT22;57229;51.432;-2.598;2022-10-16T19:12:10;18.10;97.80
56256;DHT22;57229;51.432;-2.598;2022-10-16T19:14:35;18.10;97.80
56256;DHT22;57229;51.432;-2.598;2022-10-16T19:17:02;18.10;97.80
56256;DHT22;57229;51.432;-2.598;2022-10-16T19:19:30;18.10;97.80
56256;DHT22;57229;51.432;-2.598;2022-10-16T19:21:56;18.10;97.80
56256;DHT22;57229;51.432;-2.598;2022-10-16T19:24:56;18.10;97.80
56256;DHT22;57229;51.432;-2.598;2022-10-16T19:27:22;18.10;97.80
56256;DHT22;57229;51.432;-2.598;2022-10-16T19:29:52;18.10;98.10
56256;DHT22;57229;51.432;-2.598;2022-10-16T19:32:20;18.10;97.80
56256;DHT22;57229;51.432;-2.598;2022-10-16T19:49:19;18.00;97.60
56256;DHT22;57229;51.432;-2.598;2022-10-16T19:52:44;18.00;97.60
56256;DHT22;57229;51.432;-2.598;2022-10-16T19:55:40;18.00;97.70
56256;DHT22;57229;51.432;-2.598;2022-10-16T19:58:09;18.00;97.60
56256;DHT22;57229;51.432;-2.598;2022-10-16T20:00:53;18.00;97.70
56256;DHT22;57229;51.432;-2.598;2022-10-16T20:10:20;18.00;97.70
56256;DHT22;57229;51.432;-2.598;2022-10-16T20:16:36;18.00;97.60
56256;DHT22;57229;51.432;-2.598;2022-10-16T20:22:43;18.00;97.60
56256;DHT22;57229;51.432;-2.598;2022-10-16T20:26:00;18.00;97.70
56256;DHT22;57229;51.432;-2.598;2022-10-16T20:28:08;18.00;97.90
56256;DHT22;57229;51.432;-2.598;2022-10-16T20:30:41;18.00;98.00
56256;DHT22;57229;51.432;-2.598;2022-10-16T20:36:59;18.00;98.30
56256;DHT22;57229;51.432;-2.598;2022-10-16T20:48:57;18.00;98.40
56256;DHT22;57229;51.432;-2.598;2022-10-16T20:51:29;18.00;98.40
56256;DHT22;57229;51.432;-2.598;2022-10-16T20:54:00;18.00;98.40
56256;DHT22;57229;51.432;-2.598;2022-10-16T20:56:30;18.00;98.40
56256;DHT22;57229;51.432;-2.598;2022-10-16T20:58:57;18.00;98.40
56256;DHT22;57229;51.432;-2.598;2022-10-16T21:01:25;18.00;98.40
56256;DHT22;57229;51.432;-2.598;2022-10-16T21:04:06;18.00;98.40
56256;DHT22;57229;51.432;-2.598;2022-10-16T21:06:37;18.00;98.40
56256;DHT22;57229;51.432;-2.598;2022-10-16T21:19:09;18.00;98.40
56256;DHT22;57229;51.432;-2.598;2022-10-16T21:27:28;18.00;98.40
56256;DHT22;57229;51.432;-2.598;2022-10-16T21:33:06;18.00;98.30
56256;DHT22;57229;51.432;-2.598;2022-10-16T21:35:32;18.00;98.30
56256;DHT22;57229;51.432;-2.598;2022-10-16T21:37:57;18.00;98.30
56256;DHT22;57229;51.432;-2.598;2022-10-16T21:41:02;18.00;98.30
56256;DHT22;57229;51.432;-2.598;2022-10-16T21:43:32;18.00;98.30
56256;DHT22;57229;51.432;-2.598;2022-10-16T21:46:10;18.00;98.30